Terminal Aerodrome Forecast
Issued by NWS Hastings, NE

Home | Current Version | Previous Version | Text Only | Print | Product List | Glossary On
Versions: 1 2 3 4 5 6 7 8 9 10 11 12
000
FTUS45 KGID 211136
TAFEAR
TAF
KEAR 211136Z 2112/2212 18007KT P6SM SKC
     FM211600 17013G19KT P6SM SKC
     FM211800 17016G22KT P6SM FEW035
     FM212300 15011KT P6SM SCT030
     FM220600 16011KT 6SM BR SCT015 SCT070
      AMD LTD TO CLD VIS AND WIND=

USA.gov is the U.S. government's official web portal to all federal, state and local government web resources and services.